createdAt,value
2018-10-05T00:00:50.181Z,19.03
2018-10-05T00:01:50.096Z,19.03
2018-10-05T00:02:50.297Z,19.04
2018-10-05T00:03:50.385Z,19.02
2018-10-05T00:04:50.139Z,19.04
2018-10-05T00:05:50.219Z,19.02
2018-10-05T00:06:50.129Z,19.02
2018-10-05T00:07:50.062Z,19.03
2018-10-05T00:08:50.138Z,19.03
2018-10-05T00:09:50.145Z,19.03
2018-10-05T00:10:50.302Z,19.03
2018-10-05T00:11:50.208Z,19.03
2018-10-05T00:12:50.270Z,19.02
2018-10-05T00:13:50.478Z,19.03
2018-10-05T00:14:50.382Z,19.04
2018-10-05T00:15:50.141Z,19.03
2018-10-05T00:16:50.513Z,19.03
2018-10-05T00:17:50.581Z,19.02
2018-10-05T00:18:50.621Z,19.02
2018-10-05T00:19:50.109Z,19.03
2018-10-05T00:20:50.251Z,19.03
2018-10-05T00:21:50.247Z,19.02
2018-10-05T00:22:50.549Z,19.02
2018-10-05T00:23:50.066Z,19.01
2018-10-05T00:24:50.212Z,19.01
2018-10-05T00:25:50.567Z,19.01
2018-10-05T00:26:50.341Z,19.01
2018-10-05T00:27:50.280Z,19.03
2018-10-05T00:28:50.182Z,19
2018-10-05T00:29:50.403Z,19.02
2018-10-05T00:30:50.204Z,19.01
2018-10-05T00:31:50.336Z,19
2018-10-05T00:32:50.549Z,19
2018-10-05T00:33:50.229Z,19
2018-10-05T00:34:50.224Z,19.01
2018-10-05T00:35:50.191Z,19.01
2018-10-05T00:36:50.194Z,19.01
2018-10-05T00:37:50.095Z,19.01
2018-10-05T00:38:50.142Z,19
2018-10-05T00:39:50.188Z,19
2018-10-05T00:40:50.180Z,19
2018-10-05T00:41:50.096Z,18.99
2018-10-05T00:42:50.113Z,18.99
2018-10-05T00:43:50.029Z,18.99
2018-10-05T00:44:50.208Z,18.99
2018-10-05T00:45:50.181Z,19.02
2018-10-05T00:46:50.539Z,18.99
2018-10-05T00:47:50.006Z,19
2018-10-05T00:48:50.246Z,18.98
2018-10-05T00:49:50.114Z,18.97
2018-10-05T00:50:50.269Z,19
2018-10-05T00:51:50.392Z,18.99
2018-10-05T00:52:50.142Z,18.98
2018-10-05T00:53:50.193Z,18.99
2018-10-05T00:54:50.474Z,18.99
2018-10-05T00:55:50.981Z,18.98
2018-10-05T00:56:50.043Z,18.98
2018-10-05T00:57:50.298Z,18.99
2018-10-05T00:58:50.186Z,18.99
2018-10-05T00:59:50.174Z,18.99
2018-10-05T01:00:50.605Z,18.98
2018-10-05T01:01:50.166Z,18.99
2018-10-05T01:02:50.117Z,18.97
2018-10-05T01:03:50.320Z,18.98
2018-10-05T01:04:50.123Z,18.97
2018-10-05T01:05:50.232Z,18.98
2018-10-05T01:06:50.656Z,18.98
2018-10-05T01:07:50.204Z,18.99
2018-10-05T01:08:50.283Z,18.98
2018-10-05T01:09:50.258Z,18.98
2018-10-05T01:10:50.018Z,18.98
2018-10-05T01:11:50.589Z,18.98
2018-10-05T01:12:50.075Z,18.97
2018-10-05T01:13:50.089Z,18.97
2018-10-05T01:14:49.954Z,18.96
2018-10-05T01:15:49.971Z,18.95
2018-10-05T01:16:50.013Z,18.96
2018-10-05T01:17:50.220Z,18.96
2018-10-05T01:18:49.990Z,18.96
2018-10-05T01:19:50.116Z,18.96
2018-10-05T01:20:50.175Z,18.98
2018-10-05T01:21:50.060Z,18.97
2018-10-05T01:22:50.365Z,18.99
2018-10-05T01:23:50.160Z,18.96
2018-10-05T01:24:50.138Z,18.97
2018-10-05T01:25:50.071Z,18.97
2018-10-05T01:26:50.234Z,18.96
2018-10-05T01:27:50.104Z,18.96
2018-10-05T01:28:50.072Z,18.96
2018-10-05T01:29:50.080Z,18.96
2018-10-05T01:30:50.095Z,18.96
2018-10-05T01:31:50.330Z,18.96
2018-10-05T01:32:50.430Z,18.95
2018-10-05T01:33:49.988Z,18.96
2018-10-05T01:34:50.265Z,18.96
2018-10-05T01:35:50.212Z,18.96
2018-10-05T01:36:50.091Z,18.95
2018-10-05T01:37:50.209Z,18.95
2018-10-05T01:38:50.534Z,18.95
2018-10-05T01:39:50.067Z,18.95
2018-10-05T01:40:50.194Z,18.97
2018-10-05T01:41:50.167Z,18.96
2018-10-05T01:42:50.097Z,18.94
2018-10-05T01:43:50.148Z,18.96
2018-10-05T01:44:50.578Z,18.97
2018-10-05T01:45:50.047Z,18.96
2018-10-05T01:46:50.206Z,18.96
2018-10-05T01:47:49.941Z,18.94
2018-10-05T01:48:50.025Z,18.96
2018-10-05T01:49:50.439Z,18.97
2018-10-05T01:50:50.246Z,18.96
2018-10-05T01:51:50.155Z,18.99
2018-10-05T01:52:50.016Z,18.95
2018-10-05T01:53:50.157Z,18.96
2018-10-05T01:54:50.035Z,18.95
2018-10-05T01:55:50.223Z,18.94
2018-10-05T01:56:50.132Z,18.94
2018-10-05T01:57:50.051Z,18.94
2018-10-05T01:58:50.124Z,18.93
2018-10-05T01:59:50.126Z,18.94
2018-10-05T02:00:50.636Z,18.93
2018-10-05T02:01:50.144Z,18.93
2018-10-05T02:02:49.941Z,18.94
2018-10-05T02:03:49.973Z,18.93
2018-10-05T02:04:49.951Z,18.94
2018-10-05T02:05:50.176Z,18.95
2018-10-05T02:06:50.027Z,18.94
2018-10-05T02:07:50.006Z,18.93
2018-10-05T02:08:50.167Z,18.94
2018-10-05T02:09:50.089Z,18.93
2018-10-05T02:10:50.039Z,18.94
2018-10-05T02:11:50.129Z,18.93
2018-10-05T02:12:50.025Z,18.93
2018-10-05T02:13:50.272Z,18.93
2018-10-05T02:14:50.288Z,18.93
2018-10-05T02:15:50.064Z,18.91
2018-10-05T02:16:49.989Z,18.92
2018-10-05T02:17:50.034Z,18.92
2018-10-05T02:18:50.130Z,18.91
2018-10-05T02:19:50.010Z,18.91
2018-10-05T02:20:50.149Z,18.93
2018-10-05T02:21:50.048Z,18.92
2018-10-05T02:22:50.178Z,18.93
2018-10-05T02:23:50.186Z,18.92
2018-10-05T02:24:50.198Z,18.91
2018-10-05T02:25:50.266Z,18.91
2018-10-05T02:26:50.126Z,18.93
2018-10-05T02:27:50.068Z,18.92
2018-10-05T02:28:50.315Z,18.92
2018-10-05T02:29:50.241Z,18.91
2018-10-05T02:30:50.196Z,18.92
2018-10-05T02:31:50.211Z,18.91
2018-10-05T02:32:50.194Z,18.92
2018-10-05T02:33:50.035Z,18.92
2018-10-05T02:34:50.334Z,18.92
2018-10-05T02:35:50.347Z,18.91
2018-10-05T02:36:50.375Z,18.91
2018-10-05T02:37:50.158Z,18.9
2018-10-05T02:38:50.237Z,18.91
2018-10-05T02:39:50.209Z,18.89
2018-10-05T02:40:50.417Z,18.9
2018-10-05T02:41:50.101Z,18.88
2018-10-05T02:42:50.085Z,18.89
2018-10-05T02:43:50.426Z,18.89
2018-10-05T02:44:50.389Z,18.88
2018-10-05T02:45:50.073Z,18.89
2018-10-05T02:46:50.166Z,18.89
2018-10-05T02:47:50.176Z,18.9
2018-10-05T02:48:50.470Z,18.89
2018-10-05T02:49:50.220Z,18.9
2018-10-05T02:50:50.085Z,18.89
2018-10-05T02:51:50.127Z,18.89
2018-10-05T02:52:50.565Z,18.88
2018-10-05T02:53:49.923Z,18.89
2018-10-05T02:54:50.446Z,18.89
2018-10-05T02:55:49.994Z,18.89
2018-10-05T02:56:50.236Z,18.89
2018-10-05T02:57:50.226Z,18.89
2018-10-05T02:58:50.614Z,18.88
2018-10-05T02:59:50.173Z,18.88
2018-10-05T03:00:50.104Z,18.89
2018-10-05T03:01:49.939Z,18.89
2018-10-05T03:02:50.043Z,18.87
2018-10-05T03:03:50.189Z,18.88
2018-10-05T03:04:50.105Z,18.88
2018-10-05T03:05:50.044Z,18.88
2018-10-05T03:06:50.097Z,18.87
2018-10-05T03:07:50.277Z,18.88
2018-10-05T03:08:50.220Z,18.88
2018-10-05T03:09:50.233Z,18.89
2018-10-05T03:10:50.398Z,18.89
2018-10-05T03:11:50.280Z,18.89
2018-10-05T03:12:50.112Z,18.88
2018-10-05T03:13:50.114Z,18.86
2018-10-05T03:14:50.050Z,18.86
2018-10-05T03:15:50.064Z,18.89
2018-10-05T03:16:49.976Z,18.87
2018-10-05T03:17:50.115Z,18.87
2018-10-05T03:18:49.933Z,18.87
2018-10-05T03:19:50.194Z,18.88
2018-10-05T03:20:50.064Z,18.87
2018-10-05T03:21:49.952Z,18.88
2018-10-05T03:22:50.120Z,18.88
2018-10-05T03:23:50.113Z,18.86
2018-10-05T03:24:50.434Z,18.88
2018-10-05T03:25:50.211Z,18.89
2018-10-05T03:26:50.071Z,18.88
2018-10-05T03:27:50.000Z,18.88
2018-10-05T03:28:50.270Z,18.88
2018-10-05T03:29:49.964Z,18.88
2018-10-05T03:30:50.058Z,18.89
2018-10-05T03:31:50.030Z,18.88
2018-10-05T03:32:50.050Z,18.88
2018-10-05T03:33:50.128Z,18.87
2018-10-05T03:34:50.077Z,18.87
2018-10-05T03:35:50.022Z,18.86
2018-10-05T03:36:50.030Z,18.88
2018-10-05T03:37:50.110Z,18.87
2018-10-05T03:38:49.943Z,18.86
2018-10-05T03:39:50.248Z,18.86
2018-10-05T03:40:50.480Z,18.86
2018-10-05T03:41:50.005Z,18.85
2018-10-05T03:42:50.155Z,18.86
2018-10-05T03:43:50.203Z,18.85
2018-10-05T03:44:50.267Z,18.85
2018-10-05T03:45:50.453Z,18.86
2018-10-05T03:46:50.166Z,18.87
2018-10-05T03:47:50.159Z,18.86
2018-10-05T03:48:50.112Z,18.87
2018-10-05T03:49:50.193Z,18.85
2018-10-05T03:50:50.047Z,18.86
2018-10-05T03:51:50.194Z,18.86
2018-10-05T03:52:50.022Z,18.84
2018-10-05T03:53:50.064Z,18.85
2018-10-05T03:54:50.316Z,18.85
2018-10-05T03:55:50.048Z,18.84
2018-10-05T03:56:50.227Z,18.85
2018-10-05T03:57:49.973Z,18.85
2018-10-05T03:58:50.346Z,18.86
2018-10-05T03:59:50.370Z,18.87
2018-10-05T04:00:50.436Z,18.86
2018-10-05T04:01:49.892Z,18.87
2018-10-05T04:02:50.202Z,18.87
2018-10-05T04:03:50.291Z,18.87
2018-10-05T04:04:50.061Z,18.88
2018-10-05T04:05:50.340Z,18.89
2018-10-05T04:06:50.133Z,18.9
2018-10-05T04:07:50.027Z,18.9
2018-10-05T04:08:50.173Z,18.92
2018-10-05T04:09:50.012Z,18.93
2018-10-05T04:10:50.375Z,18.94
2018-10-05T04:11:50.117Z,18.95
2018-10-05T04:12:49.896Z,18.95
2018-10-05T04:13:50.278Z,18.97
2018-10-05T04:14:50.248Z,18.98
2018-10-05T04:15:50.438Z,18.99
2018-10-05T04:16:50.245Z,19
2018-10-05T04:17:50.013Z,19.01
2018-10-05T04:18:50.257Z,19.02
2018-10-05T04:19:50.025Z,19.03
2018-10-05T04:20:49.946Z,19.06
2018-10-05T04:21:49.916Z,19.07
2018-10-05T04:22:50.412Z,19.08
2018-10-05T04:23:50.064Z,19.1
2018-10-05T04:24:49.933Z,19.12
2018-10-05T04:25:50.620Z,19.13
2018-10-05T04:26:50.160Z,19.15
2018-10-05T04:27:49.905Z,19.16
2018-10-05T04:28:50.264Z,19.19
2018-10-05T04:29:50.130Z,19.2
2018-10-05T04:30:50.505Z,19.22
2018-10-05T04:31:50.049Z,19.23
2018-10-05T04:32:50.295Z,19.24
2018-10-05T04:33:50.403Z,19.25
2018-10-05T04:34:49.925Z,19.27
2018-10-05T04:35:50.015Z,19.28
2018-10-05T04:36:50.112Z,19.3
2018-10-05T04:37:50.108Z,19.31
2018-10-05T04:38:50.209Z,19.33
2018-10-05T04:39:50.129Z,19.34
2018-10-05T04:40:50.046Z,19.35
2018-10-05T04:41:49.932Z,19.36
2018-10-05T04:42:50.302Z,19.38
2018-10-05T04:43:50.189Z,19.39
2018-10-05T04:44:49.892Z,19.41
2018-10-05T04:45:50.187Z,19.42
2018-10-05T04:46:49.926Z,19.44
2018-10-05T04:47:50.258Z,19.44
2018-10-05T04:48:50.137Z,19.45
2018-10-05T04:49:50.160Z,19.46
2018-10-05T04:50:50.202Z,19.48
2018-10-05T04:51:50.126Z,19.49
2018-10-05T04:52:50.060Z,19.5
2018-10-05T04:53:49.994Z,19.52
2018-10-05T04:54:50.133Z,19.52
2018-10-05T04:55:50.140Z,19.54
2018-10-05T04:56:50.180Z,19.55
2018-10-05T04:57:49.908Z,19.57
2018-10-05T04:58:49.931Z,19.58
2018-10-05T04:59:49.900Z,19.58
2018-10-05T05:00:50.070Z,19.6
2018-10-05T05:01:49.904Z,19.61
2018-10-05T05:02:49.991Z,19.62
2018-10-05T05:03:50.049Z,19.63
2018-10-05T05:04:50.043Z,19.64
2018-10-05T05:05:50.192Z,19.64
2018-10-05T05:06:50.072Z,19.65
2018-10-05T05:07:49.961Z,19.65
2018-10-05T05:08:50.037Z,19.66
2018-10-05T05:09:49.882Z,19.68
2018-10-05T05:10:49.960Z,19.67
2018-10-05T05:11:50.045Z,19.68
2018-10-05T05:12:49.976Z,19.69
2018-10-05T05:13:49.947Z,19.69
2018-10-05T05:14:49.994Z,19.69
2018-10-05T05:15:49.985Z,19.71
2018-10-05T05:16:49.965Z,19.72
2018-10-05T05:17:49.998Z,19.72
2018-10-05T05:18:50.027Z,19.73
2018-10-05T05:19:49.924Z,19.74
2018-10-05T05:20:49.956Z,19.75
2018-10-05T05:21:50.028Z,19.75
2018-10-05T05:22:50.018Z,19.77
2018-10-05T05:23:50.045Z,19.78
2018-10-05T05:24:50.672Z,19.78
2018-10-05T05:25:50.031Z,19.79
2018-10-05T05:26:50.078Z,19.8
2018-10-05T05:27:50.212Z,19.81
2018-10-05T05:28:50.404Z,19.82
2018-10-05T05:29:49.919Z,19.83
2018-10-05T05:30:50.044Z,19.82
2018-10-05T05:31:50.279Z,19.84
2018-10-05T05:32:49.960Z,19.84
2018-10-05T05:33:49.870Z,19.85
2018-10-05T05:34:50.108Z,19.85
2018-10-05T05:35:50.459Z,19.86
2018-10-05T05:36:50.106Z,19.87
2018-10-05T05:37:50.272Z,19.87
2018-10-05T05:38:50.132Z,19.86
2018-10-05T05:39:49.885Z,19.88
2018-10-05T05:40:50.023Z,19.88
2018-10-05T05:41:50.355Z,19.88
2018-10-05T05:42:49.940Z,19.89
2018-10-05T05:43:50.110Z,19.9
2018-10-05T05:44:49.958Z,19.9
2018-10-05T05:45:50.183Z,19.91
2018-10-05T05:46:50.064Z,19.91
2018-10-05T05:47:50.199Z,19.92
2018-10-05T05:48:49.915Z,19.93
2018-10-05T05:49:50.004Z,19.94
2018-10-05T05:50:49.980Z,19.94
2018-10-05T05:51:50.008Z,19.94
2018-10-05T05:52:50.011Z,19.95
2018-10-05T05:53:50.071Z,19.95
2018-10-05T05:54:50.171Z,19.96
2018-10-05T05:55:50.263Z,19.98
2018-10-05T05:56:50.519Z,19.98
2018-10-05T05:57:50.148Z,19.99
2018-10-05T05:58:50.069Z,19.99
2018-10-05T05:59:49.920Z,20.01
2018-10-05T06:00:49.913Z,20.01
2018-10-05T06:01:49.978Z,20.01
2018-10-05T06:02:49.851Z,20.02
2018-10-05T06:03:50.125Z,20.02
2018-10-05T06:04:50.160Z,20.02
2018-10-05T06:05:50.163Z,20.03
2018-10-05T06:06:50.149Z,20.03
2018-10-05T06:07:49.953Z,20.04
2018-10-05T06:08:49.962Z,20.03
2018-10-05T06:09:49.993Z,20.04
2018-10-05T06:10:49.940Z,20.04
2018-10-05T06:11:49.860Z,20.04
2018-10-05T06:12:49.942Z,20.05
2018-10-05T06:13:50.181Z,20.05
2018-10-05T06:14:50.034Z,20.05
2018-10-05T06:15:50.007Z,20.05
2018-10-05T06:16:50.028Z,20.05
2018-10-05T06:17:50.313Z,20.05
2018-10-05T06:18:50.148Z,20.06
2018-10-05T06:19:50.079Z,20.06
2018-10-05T06:20:50.024Z,20.05
2018-10-05T06:21:50.242Z,20.06
2018-10-05T06:22:50.053Z,20.05
2018-10-05T06:23:49.947Z,20.06
2018-10-05T06:24:50.172Z,20.07
2018-10-05T06:25:50.015Z,20.07
2018-10-05T06:26:50.075Z,20.06
2018-10-05T06:27:50.092Z,20.06
2018-10-05T06:28:49.847Z,20.06
2018-10-05T06:29:50.034Z,20.06
2018-10-05T06:30:50.512Z,20.05
2018-10-05T06:31:49.925Z,20.05
2018-10-05T06:32:50.074Z,20.05
2018-10-05T06:33:49.944Z,20.05
2018-10-05T06:34:50.031Z,20.04
2018-10-05T06:35:50.082Z,20.05
2018-10-05T06:36:50.270Z,20.04
2018-10-05T06:37:50.019Z,20.05
2018-10-05T06:38:49.958Z,20.04
2018-10-05T06:39:50.076Z,20.04
2018-10-05T06:40:50.022Z,20.03
2018-10-05T06:41:50.184Z,20.03
2018-10-05T06:42:50.081Z,20.03
2018-10-05T06:43:49.985Z,20.03
2018-10-05T06:44:50.211Z,20.03
2018-10-05T06:45:49.981Z,20.03
2018-10-05T06:46:50.142Z,20.02
2018-10-05T06:47:50.221Z,20.02
2018-10-05T06:48:49.865Z,20.01
2018-10-05T06:49:50.038Z,20.01
2018-10-05T06:50:50.247Z,20
2018-10-05T06:51:50.050Z,20
2018-10-05T06:52:49.879Z,20
2018-10-05T06:53:50.010Z,20
2018-10-05T06:54:50.179Z,19.99
2018-10-05T06:55:50.284Z,19.99
2018-10-05T06:56:50.297Z,19.99
2018-10-05T06:57:49.966Z,19.98
2018-10-05T06:58:50.044Z,19.98
2018-10-05T06:59:50.188Z,19.98
2018-10-05T07:00:50.156Z,19.97
2018-10-05T07:01:50.103Z,19.97
2018-10-05T07:02:49.867Z,19.97
2018-10-05T07:03:49.808Z,19.96
2018-10-05T07:04:50.105Z,19.96
2018-10-05T07:05:50.166Z,19.95
2018-10-05T07:06:50.369Z,19.94
2018-10-05T07:07:50.175Z,19.94
2018-10-05T07:08:50.380Z,19.94
2018-10-05T07:09:49.844Z,19.94
2018-10-05T07:10:50.299Z,19.93
2018-10-05T07:11:50.074Z,19.93
2018-10-05T07:12:50.401Z,19.93
2018-10-05T07:13:50.056Z,19.93
2018-10-05T07:14:50.426Z,19.91
2018-10-05T07:15:50.131Z,19.92
2018-10-05T07:16:50.228Z,19.91
2018-10-05T07:17:50.287Z,19.9
2018-10-05T07:18:49.991Z,19.9
2018-10-05T07:19:50.053Z,19.9
2018-10-05T07:20:50.242Z,19.89
2018-10-05T07:21:49.964Z,19.89
2018-10-05T07:22:50.041Z,19.89
2018-10-05T07:23:49.897Z,19.88
2018-10-05T07:24:50.026Z,19.87
2018-10-05T07:25:50.108Z,19.87
2018-10-05T07:26:49.919Z,19.86
2018-10-05T07:27:49.836Z,19.86
2018-10-05T07:28:50.033Z,19.86
2018-10-05T07:29:50.124Z,19.85
2018-10-05T07:30:49.773Z,19.85
2018-10-05T07:31:50.863Z,19.85
2018-10-05T07:32:50.039Z,19.84
2018-10-05T07:33:49.839Z,19.84
2018-10-05T07:34:49.895Z,19.83
2018-10-05T07:35:49.969Z,19.83
2018-10-05T07:36:50.137Z,19.83
2018-10-05T07:37:50.389Z,19.83
2018-10-05T07:38:49.918Z,19.82
2018-10-05T07:39:50.199Z,19.82
2018-10-05T07:40:50.024Z,19.81
2018-10-05T07:41:49.933Z,19.82
2018-10-05T07:42:49.995Z,19.81
2018-10-05T07:43:50.217Z,19.81
2018-10-05T07:44:50.101Z,19.8
2018-10-05T07:45:50.143Z,19.8
2018-10-05T07:46:50.193Z,19.8
2018-10-05T07:47:49.776Z,19.8
2018-10-05T07:48:49.993Z,19.79
2018-10-05T07:49:49.924Z,19.78
2018-10-05T07:50:50.270Z,19.78
2018-10-05T07:51:50.370Z,19.77
2018-10-05T07:52:50.113Z,19.78
2018-10-05T07:53:49.978Z,19.78
2018-10-05T07:54:50.368Z,19.77
2018-10-05T07:55:49.768Z,19.77
2018-10-05T07:56:50.093Z,19.77
2018-10-05T07:57:49.880Z,19.76
2018-10-05T07:58:49.951Z,19.75
2018-10-05T07:59:49.972Z,19.76
2018-10-05T08:00:50.025Z,19.75
2018-10-05T08:01:50.085Z,19.75
2018-10-05T08:02:50.139Z,19.74
2018-10-05T08:03:49.970Z,19.74
2018-10-05T08:04:49.894Z,19.74
2018-10-05T08:05:50.201Z,19.74
2018-10-05T08:06:49.929Z,19.73
2018-10-05T08:07:49.967Z,19.73
2018-10-05T08:08:50.088Z,19.72
2018-10-05T08:09:49.939Z,19.72
2018-10-05T08:10:50.225Z,19.72
2018-10-05T08:11:50.210Z,19.72
2018-10-05T08:12:49.869Z,19.71
2018-10-05T08:13:50.126Z,19.71
2018-10-05T08:14:49.858Z,19.7
2018-10-05T08:15:49.951Z,19.7
2018-10-05T08:16:49.795Z,19.7
2018-10-05T08:17:50.236Z,19.7
2018-10-05T08:18:50.318Z,19.69
2018-10-05T08:19:49.965Z,19.7
2018-10-05T08:20:50.046Z,19.7
2018-10-05T08:21:50.075Z,19.69
2018-10-05T08:22:50.169Z,19.69
2018-10-05T08:23:49.834Z,19.68
2018-10-05T08:24:50.044Z,19.68
2018-10-05T08:25:50.105Z,19.68
2018-10-05T08:26:50.131Z,19.67
2018-10-05T08:27:50.331Z,19.66
2018-10-05T08:28:50.284Z,19.66
2018-10-05T08:29:50.028Z,19.66
2018-10-05T08:30:50.094Z,19.66
2018-10-05T08:31:50.175Z,19.65
2018-10-05T08:32:49.991Z,19.66
2018-10-05T08:33:50.436Z,19.65
2018-10-05T08:34:49.910Z,19.64
2018-10-05T08:35:49.980Z,19.65
2018-10-05T08:36:50.318Z,19.65
2018-10-05T08:37:50.312Z,19.65
2018-10-05T08:38:49.976Z,19.64
2018-10-05T08:39:50.419Z,19.64
2018-10-05T08:40:49.897Z,19.64
2018-10-05T08:41:50.614Z,19.64
2018-10-05T08:42:50.037Z,19.64
2018-10-05T08:43:50.542Z,19.64
2018-10-05T08:44:50.096Z,19.64
2018-10-05T08:45:49.969Z,19.63
2018-10-05T08:46:49.925Z,19.62
2018-10-05T08:47:49.970Z,19.62
2018-10-05T08:48:50.487Z,19.62
2018-10-05T08:49:49.831Z,19.61
2018-10-05T08:50:49.925Z,19.62
2018-10-05T08:51:50.298Z,19.62
2018-10-05T08:52:50.300Z,19.61
2018-10-05T08:53:49.812Z,19.61
2018-10-05T08:54:50.070Z,19.61
2018-10-05T08:55:50.245Z,19.61
2018-10-05T08:56:49.998Z,19.61
2018-10-05T08:57:50.035Z,19.61
2018-10-05T08:58:49.815Z,19.6
2018-10-05T08:59:50.284Z,19.6
2018-10-05T09:00:50.365Z,19.59
2018-10-05T09:01:49.903Z,19.59
2018-10-05T09:02:49.840Z,19.6
2018-10-05T09:03:49.993Z,19.58
2018-10-05T09:04:50.291Z,19.57
2018-10-05T09:05:50.171Z,19.58
2018-10-05T09:06:50.208Z,19.58
2018-10-05T09:07:49.900Z,19.58
2018-10-05T09:08:50.495Z,19.58
2018-10-05T09:09:50.209Z,19.58
2018-10-05T09:10:49.949Z,19.57
2018-10-05T09:11:49.969Z,19.56
2018-10-05T09:12:49.864Z,19.57
2018-10-05T09:13:49.759Z,19.56
2018-10-05T09:14:50.082Z,19.57
2018-10-05T09:15:50.147Z,19.56
2018-10-05T09:16:50.165Z,19.57
2018-10-05T09:17:50.157Z,19.54
2018-10-05T09:18:49.896Z,19.55
2018-10-05T09:19:49.965Z,19.54
2018-10-05T09:20:49.775Z,19.54
2018-10-05T09:21:49.763Z,19.54
2018-10-05T09:22:50.133Z,19.55
2018-10-05T09:23:49.950Z,19.54
2018-10-05T09:24:49.932Z,19.54
2018-10-05T09:25:49.750Z,19.54
2018-10-05T09:26:50.232Z,19.53
2018-10-05T09:27:49.856Z,19.53
2018-10-05T09:28:50.047Z,19.52
2018-10-05T09:29:49.994Z,19.52
2018-10-05T09:30:49.972Z,19.52
2018-10-05T09:31:49.987Z,19.53
2018-10-05T09:32:49.822Z,19.52
2018-10-05T09:33:49.863Z,19.51
2018-10-05T09:34:49.973Z,19.51
2018-10-05T09:35:49.872Z,19.51
2018-10-05T09:36:50.216Z,19.52
2018-10-05T09:37:50.380Z,19.52
2018-10-05T09:38:50.121Z,19.51
2018-10-05T09:39:49.941Z,19.5
2018-10-05T09:40:49.774Z,19.51
2018-10-05T09:41:49.812Z,19.51
2018-10-05T09:42:50.150Z,19.51
2018-10-05T09:43:50.136Z,19.5
2018-10-05T09:44:50.330Z,19.5
2018-10-05T09:45:49.992Z,19.49
2018-10-05T09:46:50.277Z,19.48
2018-10-05T09:47:50.438Z,19.48
2018-10-05T09:48:50.207Z,19.48
2018-10-05T09:49:50.029Z,19.48
2018-10-05T09:50:49.814Z,19.47
2018-10-05T09:51:49.992Z,19.48
2018-10-05T09:52:49.743Z,19.48
2018-10-05T09:53:49.973Z,19.47
2018-10-05T09:54:50.024Z,19.47
2018-10-05T09:55:50.141Z,19.47
2018-10-05T09:56:50.038Z,19.46
2018-10-05T09:57:49.939Z,19.47
2018-10-05T09:58:50.155Z,19.46
2018-10-05T09:59:50.165Z,19.46
2018-10-05T10:00:50.184Z,19.46
2018-10-05T10:01:50.295Z,19.47
2018-10-05T10:02:50.210Z,19.46
2018-10-05T10:03:49.700Z,19.45
2018-10-05T10:04:49.773Z,19.46
2018-10-05T10:05:49.975Z,19.45
2018-10-05T10:06:50.031Z,19.45
2018-10-05T10:07:50.012Z,19.46
2018-10-05T10:08:49.866Z,19.45
2018-10-05T10:09:50.239Z,19.44
2018-10-05T10:10:50.033Z,19.44
2018-10-05T10:11:50.106Z,19.44
2018-10-05T10:12:49.801Z,19.45
2018-10-05T10:13:49.900Z,19.44
2018-10-05T10:14:49.743Z,19.44
2018-10-05T10:15:50.036Z,19.45
2018-10-05T10:16:50.034Z,19.44
2018-10-05T10:17:50.073Z,19.44
2018-10-05T10:18:49.859Z,19.44
2018-10-05T10:19:50.303Z,19.44
2018-10-05T10:20:50.183Z,19.42
2018-10-05T10:21:49.888Z,19.43
2018-10-05T10:22:49.792Z,19.42
2018-10-05T10:23:49.931Z,19.42
2018-10-05T10:24:50.072Z,19.43
2018-10-05T10:25:50.046Z,19.43
2018-10-05T10:26:50.076Z,19.42
2018-10-05T10:27:49.872Z,19.42
2018-10-05T10:28:50.031Z,19.43
2018-10-05T10:29:49.857Z,19.41
2018-10-05T10:30:49.836Z,19.42
2018-10-05T10:31:50.061Z,19.41
2018-10-05T10:32:49.849Z,19.41
2018-10-05T10:33:49.812Z,19.41
2018-10-05T10:34:50.222Z,19.41
2018-10-05T10:35:50.136Z,19.4
2018-10-05T10:36:49.912Z,19.4
2018-10-05T10:37:49.978Z,19.4
2018-10-05T10:38:49.944Z,19.39
2018-10-05T10:39:49.945Z,19.4
2018-10-05T10:40:50.431Z,19.38
2018-10-05T10:41:49.908Z,19.38
2018-10-05T10:42:49.915Z,19.38
2018-10-05T10:43:49.785Z,19.39
2018-10-05T10:44:49.892Z,19.39
2018-10-05T10:45:49.915Z,19.38
2018-10-05T10:46:49.944Z,19.38
2018-10-05T10:47:49.973Z,19.38
2018-10-05T10:48:49.995Z,19.38
2018-10-05T10:49:49.867Z,19.38
2018-10-05T10:50:49.861Z,19.38
2018-10-05T10:51:50.251Z,19.37
2018-10-05T10:52:49.759Z,19.36
2018-10-05T10:53:50.004Z,19.35
2018-10-05T10:54:49.858Z,19.36
2018-10-05T10:55:49.903Z,19.36
2018-10-05T10:56:49.810Z,19.34
2018-10-05T10:57:50.394Z,19.35
2018-10-05T10:58:49.827Z,19.34
2018-10-05T10:59:49.769Z,19.35
2018-10-05T11:00:50.059Z,19.34
2018-10-05T11:01:49.889Z,19.34
2018-10-05T11:02:49.810Z,19.34
2018-10-05T11:03:49.909Z,19.34
2018-10-05T11:04:50.595Z,19.34
2018-10-05T11:05:49.975Z,19.33
2018-10-05T11:06:50.137Z,19.34
2018-10-05T11:07:49.962Z,19.34
2018-10-05T11:08:50.071Z,19.34
2018-10-05T11:09:49.965Z,19.33
2018-10-05T11:10:49.873Z,19.33
2018-10-05T11:11:49.816Z,19.33
2018-10-05T11:12:50.043Z,19.33
2018-10-05T11:13:50.057Z,19.32
2018-10-05T11:14:49.917Z,19.33
2018-10-05T11:15:49.912Z,19.33
2018-10-05T11:16:49.872Z,19.3
2018-10-05T11:17:50.329Z,19.31
2018-10-05T11:18:49.856Z,19.31
2018-10-05T11:19:49.916Z,19.3
2018-10-05T11:20:49.769Z,19.3
2018-10-05T11:21:49.929Z,19.31
2018-10-05T11:22:49.886Z,19.31
2018-10-05T11:23:49.899Z,19.3
2018-10-05T11:24:50.034Z,19.31
2018-10-05T11:25:49.793Z,19.31
2018-10-05T11:26:49.840Z,19.31
2018-10-05T11:27:50.087Z,19.3
2018-10-05T11:28:49.924Z,19.3
2018-10-05T11:29:50.079Z,19.31
2018-10-05T11:30:49.899Z,19.32
2018-10-05T11:31:50.142Z,19.31
2018-10-05T11:32:49.858Z,19.31
2018-10-05T11:33:50.086Z,19.31
2018-10-05T11:34:49.810Z,19.32
2018-10-05T11:35:50.044Z,19.32
2018-10-05T11:36:50.056Z,19.32
2018-10-05T11:37:49.949Z,19.3
2018-10-05T11:38:50.264Z,19.3
2018-10-05T11:39:49.890Z,19.3
2018-10-05T11:40:49.814Z,19.3
2018-10-05T11:41:49.884Z,19.3
2018-10-05T11:42:49.928Z,19.3
2018-10-05T11:43:49.953Z,19.31
2018-10-05T11:44:49.837Z,19.3
2018-10-05T11:45:49.879Z,19.3
2018-10-05T11:46:49.856Z,19.3
2018-10-05T11:47:49.915Z,19.29
2018-10-05T11:48:50.124Z,19.29
2018-10-05T11:49:50.132Z,19.3
2018-10-05T11:50:49.775Z,19.3
2018-10-05T11:51:50.227Z,19.3
2018-10-05T11:52:49.882Z,19.28
2018-10-05T11:53:49.812Z,19.28
2018-10-05T11:54:49.822Z,19.28
2018-10-05T11:55:49.771Z,19.27
2018-10-05T11:56:49.938Z,19.28
2018-10-05T11:57:50.022Z,19.28
2018-10-05T11:58:49.867Z,19.27
2018-10-05T11:59:50.018Z,19.27
2018-10-05T12:00:50.118Z,19.27
2018-10-05T12:01:49.812Z,19.27
2018-10-05T12:02:50.052Z,19.27
2018-10-05T12:03:50.249Z,19.27
2018-10-05T12:04:50.377Z,19.27
2018-10-05T12:05:50.141Z,19.27
2018-10-05T12:06:50.143Z,19.28
2018-10-05T12:07:50.054Z,19.27
2018-10-05T12:08:49.832Z,19.25
2018-10-05T12:09:49.724Z,19.27
2018-10-05T12:10:49.969Z,19.26
2018-10-05T12:11:49.740Z,19.27
2018-10-05T12:12:49.731Z,19.26
2018-10-05T12:13:49.767Z,19.25
2018-10-05T12:14:50.028Z,19.26
2018-10-05T12:15:49.873Z,19.26
2018-10-05T12:16:49.738Z,19.25
2018-10-05T12:17:49.834Z,19.26
2018-10-05T12:18:49.903Z,19.25
2018-10-05T12:19:49.944Z,19.25
2018-10-05T12:20:49.828Z,19.25
2018-10-05T12:21:49.897Z,19.25
2018-10-05T12:22:49.755Z,19.25
2018-10-05T12:23:49.836Z,19.24
2018-10-05T12:24:49.979Z,19.26
2018-10-05T12:25:49.847Z,19.24
2018-10-05T12:26:49.895Z,19.25
2018-10-05T12:27:49.745Z,19.25
2018-10-05T12:28:49.945Z,19.25
2018-10-05T12:29:50.243Z,19.25
2018-10-05T12:30:50.121Z,19.24
2018-10-05T12:31:49.777Z,19.25
2018-10-05T12:32:49.671Z,19.24
2018-10-05T12:33:49.840Z,19.24
2018-10-05T12:34:50.458Z,19.24
2018-10-05T12:35:49.993Z,19.24
2018-10-05T12:36:49.913Z,19.24
2018-10-05T12:37:50.004Z,19.23
2018-10-05T12:38:50.079Z,19.23
2018-10-05T12:39:49.925Z,19.23
2018-10-05T12:40:49.805Z,19.24
2018-10-05T12:41:49.870Z,19.22
2018-10-05T12:42:50.212Z,19.22
2018-10-05T12:43:49.932Z,19.22
2018-10-05T12:44:50.228Z,19.22
2018-10-05T12:45:49.761Z,19.21
2018-10-05T12:46:49.929Z,19.22
2018-10-05T12:47:49.720Z,19.21
2018-10-05T12:48:49.982Z,19.21
2018-10-05T12:49:49.801Z,19.22
2018-10-05T12:50:49.805Z,19.22
2018-10-05T12:51:49.833Z,19.23
2018-10-05T12:52:50.152Z,19.22
2018-10-05T12:53:50.114Z,19.2
2018-10-05T12:54:49.800Z,19.21
2018-10-05T12:55:49.885Z,19.22